sensor_id;sensor_type;location;lat;lon;timestamp;P1;durP1;ratioP1;P2;durP2;ratioP2
29824;SDS011;16713;52.916;12.834;2024-01-11T00:01:44;27.10;;;10.88;;
29824;SDS011;16713;52.916;12.834;2024-01-11T00:04:12;24.67;;;10.43;;
29824;SDS011;16713;52.916;12.834;2024-01-11T00:06:42;25.30;;;11.43;;
29824;SDS011;16713;52.916;12.834;2024-01-11T00:09:10;27.30;;;10.40;;
29824;SDS011;16713;52.916;12.834;2024-01-11T00:11:37;22.23;;;9.50;;
29824;SDS011;16713;52.916;12.834;2024-01-11T00:14:03;26.05;;;10.57;;
29824;SDS011;16713;52.916;12.834;2024-01-11T00:16:30;27.52;;;10.93;;
29824;SDS011;16713;52.916;12.834;2024-01-11T00:18:56;25.17;;;9.88;;
29824;SDS011;16713;52.916;12.834;2024-01-11T00:21:23;27.83;;;10.68;;
29824;SDS011;16713;52.916;12.834;2024-01-11T00:23:50;27.48;;;9.70;;
29824;SDS011;16713;52.916;12.834;2024-01-11T00:26:16;26.75;;;10.52;;
29824;SDS011;16713;52.916;12.834;2024-01-11T00:28:43;29.13;;;10.65;;
29824;SDS011;16713;52.916;12.834;2024-01-11T00:31:10;26.95;;;10.40;;
29824;SDS011;16713;52.916;12.834;2024-01-11T00:33:37;27.70;;;11.18;;
29824;SDS011;16713;52.916;12.834;2024-01-11T00:36:03;26.83;;;10.18;;
29824;SDS011;16713;52.916;12.834;2024-01-11T00:38:30;27.75;;;10.13;;
29824;SDS011;16713;52.916;12.834;2024-01-11T00:40:57;28.00;;;9.95;;
29824;SDS011;16713;52.916;12.834;2024-01-11T00:43:23;27.80;;;10.40;;
29824;SDS011;16713;52.916;12.834;2024-01-11T00:45:50;30.40;;;10.27;;
29824;SDS011;16713;52.916;12.834;2024-01-11T00:48:16;22.38;;;8.88;;
29824;SDS011;16713;52.916;12.834;2024-01-11T00:50:43;28.33;;;10.60;;
29824;SDS011;16713;52.916;12.834;2024-01-11T00:53:09;22.63;;;9.93;;
29824;SDS011;16713;52.916;12.834;2024-01-11T00:55:37;26.80;;;9.57;;
29824;SDS011;16713;52.916;12.834;2024-01-11T00:58:03;25.80;;;10.80;;
29824;SDS011;16713;52.916;12.834;2024-01-11T01:00:30;23.27;;;10.07;;
29824;SDS011;16713;52.916;12.834;2024-01-11T01:02:56;29.10;;;11.00;;
29824;SDS011;16713;52.916;12.834;2024-01-11T01:05:23;26.55;;;10.50;;
29824;SDS011;16713;52.916;12.834;2024-01-11T01:07:49;30.63;;;11.52;;
29824;SDS011;16713;52.916;12.834;2024-01-11T01:10:16;32.70;;;13.55;;
29824;SDS011;16713;52.916;12.834;2024-01-11T01:12:42;41.00;;;14.63;;
29824;SDS011;16713;52.916;12.834;2024-01-11T01:15:09;38.65;;;14.77;;
29824;SDS011;16713;52.916;12.834;2024-01-11T01:17:36;35.47;;;13.52;;
29824;SDS011;16713;52.916;12.834;2024-01-11T01:20:03;41.80;;;14.48;;
29824;SDS011;16713;52.916;12.834;2024-01-11T01:22:30;40.88;;;15.82;;
29824;SDS011;16713;52.916;12.834;2024-01-11T01:24:57;43.67;;;15.95;;
29824;SDS011;16713;52.916;12.834;2024-01-11T01:27:23;44.65;;;16.20;;
29824;SDS011;16713;52.916;12.834;2024-01-11T01:29:50;42.40;;;15.02;;
29824;SDS011;16713;52.916;12.834;2024-01-11T01:32:17;36.30;;;14.30;;
29824;SDS011;16713;52.916;12.834;2024-01-11T01:34:44;42.42;;;14.73;;
29824;SDS011;16713;52.916;12.834;2024-01-11T01:37:14;40.08;;;14.68;;
29824;SDS011;16713;52.916;12.834;2024-01-11T01:39:41;43.38;;;15.73;;
29824;SDS011;16713;52.916;12.834;2024-01-11T01:42:08;36.92;;;13.20;;
29824;SDS011;16713;52.916;12.834;2024-01-11T01:44:34;30.48;;;12.75;;
29824;SDS011;16713;52.916;12.834;2024-01-11T01:47:02;35.03;;;12.70;;
29824;SDS011;16713;52.916;12.834;2024-01-11T01:49:30;31.92;;;12.55;;
29824;SDS011;16713;52.916;12.834;2024-01-11T01:51:57;29.23;;;12.32;;
29824;SDS011;16713;52.916;12.834;2024-01-11T01:54:23;31.40;;;11.55;;
29824;SDS011;16713;52.916;12.834;2024-01-11T01:56:50;38.00;;;14.48;;
29824;SDS011;16713;52.916;12.834;2024-01-11T01:59:18;31.98;;;12.85;;
29824;SDS011;16713;52.916;12.834;2024-01-11T02:01:46;32.88;;;12.40;;
29824;SDS011;16713;52.916;12.834;2024-01-11T02:04:13;28.10;;;12.05;;
29824;SDS011;16713;52.916;12.834;2024-01-11T02:06:41;34.55;;;12.18;;
29824;SDS011;16713;52.916;12.834;2024-01-11T02:09:13;31.65;;;12.20;;
29824;SDS011;16713;52.916;12.834;2024-01-11T02:11:44;35.63;;;13.10;;
29824;SDS011;16713;52.916;12.834;2024-01-11T02:14:11;27.02;;;9.05;;
29824;SDS011;16713;52.916;12.834;2024-01-11T02:16:37;37.10;;;11.88;;
29824;SDS011;16713;52.916;12.834;2024-01-11T02:19:07;29.70;;;12.20;;
29824;SDS011;16713;52.916;12.834;2024-01-11T02:21:39;36.40;;;12.07;;
29824;SDS011;16713;52.916;12.834;2024-01-11T02:24:08;35.08;;;12.40;;
29824;SDS011;16713;52.916;12.834;2024-01-11T02:26:35;32.50;;;12.52;;
29824;SDS011;16713;52.916;12.834;2024-01-11T02:29:02;35.85;;;13.73;;
29824;SDS011;16713;52.916;12.834;2024-01-11T02:31:29;35.28;;;12.02;;
29824;SDS011;16713;52.916;12.834;2024-01-11T02:33:55;36.35;;;12.88;;
29824;SDS011;16713;52.916;12.834;2024-01-11T02:36:22;28.17;;;10.93;;
29824;SDS011;16713;52.916;12.834;2024-01-11T02:38:49;40.25;;;12.95;;
29824;SDS011;16713;52.916;12.834;2024-01-11T02:41:17;29.30;;;12.02;;
29824;SDS011;16713;52.916;12.834;2024-01-11T02:43:48;34.28;;;12.75;;
29824;SDS011;16713;52.916;12.834;2024-01-11T02:46:15;31.67;;;12.25;;
29824;SDS011;16713;52.916;12.834;2024-01-11T02:48:42;29.35;;;12.77;;
29824;SDS011;16713;52.916;12.834;2024-01-11T02:51:09;34.78;;;12.52;;
29824;SDS011;16713;52.916;12.834;2024-01-11T02:53:36;33.17;;;12.90;;
29824;SDS011;16713;52.916;12.834;2024-01-11T02:56:02;34.88;;;13.68;;
29824;SDS011;16713;52.916;12.834;2024-01-11T02:58:29;38.88;;;14.60;;
29824;SDS011;16713;52.916;12.834;2024-01-11T03:00:56;32.30;;;14.40;;
29824;SDS011;16713;52.916;12.834;2024-01-11T03:03:22;38.63;;;15.85;;
29824;SDS011;16713;52.916;12.834;2024-01-11T03:05:49;39.85;;;15.20;;
29824;SDS011;16713;52.916;12.834;2024-01-11T03:08:16;41.03;;;15.43;;
29824;SDS011;16713;52.916;12.834;2024-01-11T03:10:42;46.35;;;15.82;;
29824;SDS011;16713;52.916;12.834;2024-01-11T03:13:09;37.50;;;14.38;;
29824;SDS011;16713;52.916;12.834;2024-01-11T03:15:35;37.75;;;13.20;;
29824;SDS011;16713;52.916;12.834;2024-01-11T03:18:01;38.47;;;16.35;;
29824;SDS011;16713;52.916;12.834;2024-01-11T03:20:29;43.08;;;14.45;;
29824;SDS011;16713;52.916;12.834;2024-01-11T03:22:55;40.65;;;14.35;;
29824;SDS011;16713;52.916;12.834;2024-01-11T03:25:22;38.60;;;14.32;;
29824;SDS011;16713;52.916;12.834;2024-01-11T03:27:48;40.45;;;14.88;;
29824;SDS011;16713;52.916;12.834;2024-01-11T03:30:15;41.35;;;14.75;;
29824;SDS011;16713;52.916;12.834;2024-01-11T03:32:42;41.00;;;14.90;;
29824;SDS011;16713;52.916;12.834;2024-01-11T03:35:09;39.30;;;15.60;;
29824;SDS011;16713;52.916;12.834;2024-01-11T03:37:36;41.03;;;15.70;;
29824;SDS011;16713;52.916;12.834;2024-01-11T03:40:03;40.90;;;15.80;;
29824;SDS011;16713;52.916;12.834;2024-01-11T03:42:30;43.25;;;15.55;;
29824;SDS011;16713;52.916;12.834;2024-01-11T03:44:56;41.38;;;15.40;;
29824;SDS011;16713;52.916;12.834;2024-01-11T03:47:23;37.85;;;16.13;;
29824;SDS011;16713;52.916;12.834;2024-01-11T03:49:49;41.70;;;15.65;;
29824;SDS011;16713;52.916;12.834;2024-01-11T03:52:16;38.97;;;16.23;;
29824;SDS011;16713;52.916;12.834;2024-01-11T03:54:42;42.83;;;15.38;;
29824;SDS011;16713;52.916;12.834;2024-01-11T03:57:08;41.50;;;16.23;;
29824;SDS011;16713;52.916;12.834;2024-01-11T03:59:35;40.90;;;15.75;;
29824;SDS011;16713;52.916;12.834;2024-01-11T04:02:01;45.65;;;16.25;;
29824;SDS011;16713;52.916;12.834;2024-01-11T04:04:28;45.63;;;17.50;;
29824;SDS011;16713;52.916;12.834;2024-01-11T04:06:54;37.80;;;16.05;;
29824;SDS011;16713;52.916;12.834;2024-01-11T04:09:21;43.63;;;17.95;;
29824;SDS011;16713;52.916;12.834;2024-01-11T04:11:47;38.13;;;17.65;;
29824;SDS011;16713;52.916;12.834;2024-01-11T04:14:14;35.33;;;15.73;;
29824;SDS011;16713;52.916;12.834;2024-01-11T04:16:41;35.33;;;14.77;;
29824;SDS011;16713;52.916;12.834;2024-01-11T04:19:08;35.38;;;16.60;;
29824;SDS011;16713;52.916;12.834;2024-01-11T04:21:35;29.08;;;14.20;;
29824;SDS011;16713;52.916;12.834;2024-01-11T04:24:03;33.15;;;15.68;;
29824;SDS011;16713;52.916;12.834;2024-01-11T04:26:30;32.17;;;15.90;;
29824;SDS011;16713;52.916;12.834;2024-01-11T04:28:56;30.23;;;14.90;;
29824;SDS011;16713;52.916;12.834;2024-01-11T04:31:29;29.98;;;15.48;;
29824;SDS011;16713;52.916;12.834;2024-01-11T04:33:55;30.08;;;14.40;;
29824;SDS011;16713;52.916;12.834;2024-01-11T04:36:22;27.55;;;15.68;;
29824;SDS011;16713;52.916;12.834;2024-01-11T04:38:49;28.83;;;13.73;;
29824;SDS011;16713;52.916;12.834;2024-01-11T04:41:15;25.27;;;13.25;;
29824;SDS011;16713;52.916;12.834;2024-01-11T04:43:43;23.85;;;11.88;;
29824;SDS011;16713;52.916;12.834;2024-01-11T04:46:16;25.20;;;13.38;;
29824;SDS011;16713;52.916;12.834;2024-01-11T04:48:43;26.23;;;12.05;;
29824;SDS011;16713;52.916;12.834;2024-01-11T04:51:11;23.55;;;11.45;;
29824;SDS011;16713;52.916;12.834;2024-01-11T04:53:42;22.90;;;12.30;;
29824;SDS011;16713;52.916;12.834;2024-01-11T04:56:10;25.77;;;12.82;;
29824;SDS011;16713;52.916;12.834;2024-01-11T04:58:41;24.95;;;12.77;;
29824;SDS011;16713;52.916;12.834;2024-01-11T05:01:12;24.38;;;12.63;;
29824;SDS011;16713;52.916;12.834;2024-01-11T05:03:39;21.87;;;11.90;;
29824;SDS011;16713;52.916;12.834;2024-01-11T05:06:06;22.45;;;11.15;;
29824;SDS011;16713;52.916;12.834;2024-01-11T05:08:32;20.50;;;10.93;;
29824;SDS011;16713;52.916;12.834;2024-01-11T05:10:59;20.27;;;10.85;;
29824;SDS011;16713;52.916;12.834;2024-01-11T05:13:26;21.33;;;11.77;;
29824;SDS011;16713;52.916;12.834;2024-01-11T05:15:52;23.30;;;11.95;;
29824;SDS011;16713;52.916;12.834;2024-01-11T05:18:19;21.17;;;12.23;;
29824;SDS011;16713;52.916;12.834;2024-01-11T05:20:45;20.50;;;11.88;;
29824;SDS011;16713;52.916;12.834;2024-01-11T05:23:12;19.27;;;10.98;;
29824;SDS011;16713;52.916;12.834;2024-01-11T05:25:39;21.02;;;11.45;;
29824;SDS011;16713;52.916;12.834;2024-01-11T05:28:05;21.48;;;11.57;;
29824;SDS011;16713;52.916;12.834;2024-01-11T05:30:32;20.23;;;11.57;;
29824;SDS011;16713;52.916;12.834;2024-01-11T05:32:59;22.33;;;12.30;;
29824;SDS011;16713;52.916;12.834;2024-01-11T05:35:26;23.73;;;12.65;;
29824;SDS011;16713;52.916;12.834;2024-01-11T05:37:55;20.50;;;10.77;;
29824;SDS011;16713;52.916;12.834;2024-01-11T05:40:22;20.80;;;11.27;;
29824;SDS011;16713;52.916;12.834;2024-01-11T05:42:48;22.33;;;11.75;;
29824;SDS011;16713;52.916;12.834;2024-01-11T05:45:15;22.00;;;12.05;;
29824;SDS011;16713;52.916;12.834;2024-01-11T05:47:47;19.58;;;10.98;;
29824;SDS011;16713;52.916;12.834;2024-01-11T05:50:14;21.02;;;11.32;;
29824;SDS011;16713;52.916;12.834;2024-01-11T05:52:41;24.08;;;11.75;;
29824;SDS011;16713;52.916;12.834;2024-01-11T05:55:08;20.98;;;12.07;;
29824;SDS011;16713;52.916;12.834;2024-01-11T05:57:35;22.25;;;11.70;;
29824;SDS011;16713;52.916;12.834;2024-01-11T06:00:01;24.75;;;13.25;;
29824;SDS011;16713;52.916;12.834;2024-01-11T06:02:28;20.00;;;11.25;;
29824;SDS011;16713;52.916;12.834;2024-01-11T06:04:54;20.42;;;10.85;;
29824;SDS011;16713;52.916;12.834;2024-01-11T06:07:21;19.35;;;11.15;;
29824;SDS011;16713;52.916;12.834;2024-01-11T06:09:47;19.50;;;11.50;;
29824;SDS011;16713;52.916;12.834;2024-01-11T06:12:14;21.00;;;11.93;;
29824;SDS011;16713;52.916;12.834;2024-01-11T06:14:40;19.50;;;10.77;;
29824;SDS011;16713;52.916;12.834;2024-01-11T06:17:07;19.13;;;11.30;;
29824;SDS011;16713;52.916;12.834;2024-01-11T06:19:37;20.95;;;11.05;;
29824;SDS011;16713;52.916;12.834;2024-01-11T06:22:04;18.08;;;11.27;;
29824;SDS011;16713;52.916;12.834;2024-01-11T06:24:31;21.55;;;11.40;;
29824;SDS011;16713;52.916;12.834;2024-01-11T06:26:58;20.35;;;10.63;;
29824;SDS011;16713;52.916;12.834;2024-01-11T06:29:24;21.15;;;11.18;;
29824;SDS011;16713;52.916;12.834;2024-01-11T06:31:51;19.75;;;11.02;;
29824;SDS011;16713;52.916;12.834;2024-01-11T06:34:17;22.10;;;11.68;;
29824;SDS011;16713;52.916;12.834;2024-01-11T06:36:44;20.52;;;12.25;;
29824;SDS011;16713;52.916;12.834;2024-01-11T06:39:11;22.30;;;12.55;;
29824;SDS011;16713;52.916;12.834;2024-01-11T06:41:38;25.25;;;12.55;;
29824;SDS011;16713;52.916;12.834;2024-01-11T06:44:05;22.98;;;12.68;;
29824;SDS011;16713;52.916;12.834;2024-01-11T06:46:32;26.92;;;13.45;;
29824;SDS011;16713;52.916;12.834;2024-01-11T06:48:58;23.17;;;13.07;;
29824;SDS011;16713;52.916;12.834;2024-01-11T06:51:25;25.40;;;13.07;;
29824;SDS011;16713;52.916;12.834;2024-01-11T06:53:51;26.20;;;14.65;;
29824;SDS011;16713;52.916;12.834;2024-01-11T06:56:19;27.38;;;13.60;;
29824;SDS011;16713;52.916;12.834;2024-01-11T06:58:47;23.90;;;13.55;;
29824;SDS011;16713;52.916;12.834;2024-01-11T07:01:13;23.35;;;12.77;;
29824;SDS011;16713;52.916;12.834;2024-01-11T07:03:40;25.50;;;13.13;;
29824;SDS011;16713;52.916;12.834;2024-01-11T07:06:07;25.02;;;13.13;;
29824;SDS011;16713;52.916;12.834;2024-01-11T07:08:33;25.13;;;13.57;;
29824;SDS011;16713;52.916;12.834;2024-01-11T07:11:01;26.42;;;13.55;;
29824;SDS011;16713;52.916;12.834;2024-01-11T07:13:30;25.17;;;12.75;;
29824;SDS011;16713;52.916;12.834;2024-01-11T07:15:59;22.48;;;12.75;;
29824;SDS011;16713;52.916;12.834;2024-01-11T07:18:26;23.63;;;12.73;;
29824;SDS011;16713;52.916;12.834;2024-01-11T07:20:53;21.88;;;11.50;;
29824;SDS011;16713;52.916;12.834;2024-01-11T07:23:22;27.25;;;12.60;;
29824;SDS011;16713;52.916;12.834;2024-01-11T07:25:49;24.00;;;13.43;;
29824;SDS011;16713;52.916;12.834;2024-01-11T07:28:16;22.05;;;12.50;;
29824;SDS011;16713;52.916;12.834;2024-01-11T07:30:43;22.92;;;12.95;;
29824;SDS011;16713;52.916;12.834;2024-01-11T07:33:10;26.15;;;12.55;;
29824;SDS011;16713;52.916;12.834;2024-01-11T07:35:37;28.52;;;12.77;;
29824;SDS011;16713;52.916;12.834;2024-01-11T07:38:04;22.27;;;12.88;;
29824;SDS011;16713;52.916;12.834;2024-01-11T07:40:30;24.77;;;13.25;;
29824;SDS011;16713;52.916;12.834;2024-01-11T07:43:01;23.83;;;12.48;;
29824;SDS011;16713;52.916;12.834;2024-01-11T07:45:28;27.27;;;13.50;;
29824;SDS011;16713;52.916;12.834;2024-01-11T07:47:54;24.38;;;12.38;;
29824;SDS011;16713;52.916;12.834;2024-01-11T07:50:21;25.42;;;14.00;;
29824;SDS011;16713;52.916;12.834;2024-01-11T07:52:47;23.88;;;12.98;;
29824;SDS011;16713;52.916;12.834;2024-01-11T07:55:14;22.13;;;11.95;;
29824;SDS011;16713;52.916;12.834;2024-01-11T07:57:40;20.83;;;11.73;;
29824;SDS011;16713;52.916;12.834;2024-01-11T08:00:07;24.23;;;12.52;;
29824;SDS011;16713;52.916;12.834;2024-01-11T08:02:34;24.30;;;12.40;;
29824;SDS011;16713;52.916;12.834;2024-01-11T08:05:01;24.45;;;12.55;;
29824;SDS011;16713;52.916;12.834;2024-01-11T08:07:28;22.17;;;11.15;;
29824;SDS011;16713;52.916;12.834;2024-01-11T08:09:54;21.73;;;11.30;;
29824;SDS011;16713;52.916;12.834;2024-01-11T08:12:21;20.10;;;11.18;;
29824;SDS011;16713;52.916;12.834;2024-01-11T08:14:48;20.88;;;11.48;;
29824;SDS011;16713;52.916;12.834;2024-01-11T08:17:15;21.25;;;12.18;;
29824;SDS011;16713;52.916;12.834;2024-01-11T08:19:41;18.92;;;10.38;;
29824;SDS011;16713;52.916;12.834;2024-01-11T08:22:09;18.90;;;10.60;;
29824;SDS011;16713;52.916;12.834;2024-01-11T08:24:36;22.42;;;12.00;;
29824;SDS011;16713;52.916;12.834;2024-01-11T08:27:04;21.85;;;11.88;;
29824;SDS011;16713;52.916;12.834;2024-01-11T08:29:32;20.80;;;10.82;;
29824;SDS011;16713;52.916;12.834;2024-01-11T08:31:59;21.73;;;12.60;;
29824;SDS011;16713;52.916;12.834;2024-01-11T08:34:49;19.45;;;10.50;;
29824;SDS011;16713;52.916;12.834;2024-01-11T08:37:15;21.35;;;11.07;;
29824;SDS011;16713;52.916;12.834;2024-01-11T08:39:42;21.20;;;12.30;;
29824;SDS011;16713;52.916;12.834;2024-01-11T08:42:09;20.52;;;11.85;;
29824;SDS011;16713;52.916;12.834;2024-01-11T08:44:35;21.90;;;11.15;;
29824;SDS011;16713;52.916;12.834;2024-01-11T08:47:02;21.30;;;11.75;;
29824;SDS011;16713;52.916;12.834;2024-01-11T08:49:30;24.33;;;11.90;;
29824;SDS011;16713;52.916;12.834;2024-01-11T08:51:56;29.73;;;14.50;;
29824;SDS011;16713;52.916;12.834;2024-01-11T08:54:23;22.90;;;12.23;;
29824;SDS011;16713;52.916;12.834;2024-01-11T08:56:49;26.95;;;13.55;;
29824;SDS011;16713;52.916;12.834;2024-01-11T08:59:16;26.00;;;12.88;;
29824;SDS011;16713;52.916;12.834;2024-01-11T09:01:42;23.48;;;12.55;;
29824;SDS011;16713;52.916;12.834;2024-01-11T09:04:22;24.67;;;12.40;;
29824;SDS011;16713;52.916;12.834;2024-01-11T09:06:49;23.25;;;12.07;;
29824;SDS011;16713;52.916;12.834;2024-01-11T09:09:15;26.10;;;12.88;;
29824;SDS011;16713;52.916;12.834;2024-01-11T09:11:43;26.70;;;12.82;;
29824;SDS011;16713;52.916;12.834;2024-01-11T09:14:09;22.50;;;12.63;;
29824;SDS011;16713;52.916;12.834;2024-01-11T09:16:37;23.45;;;12.90;;
29824;SDS011;16713;52.916;12.834;2024-01-11T09:19:06;22.92;;;11.60;;
29824;SDS011;16713;52.916;12.834;2024-01-11T09:21:32;26.73;;;13.05;;
29824;SDS011;16713;52.916;12.834;2024-01-11T09:23:59;27.05;;;13.27;;
29824;SDS011;16713;52.916;12.834;2024-01-11T09:26:25;24.30;;;11.95;;
29824;SDS011;16713;52.916;12.834;2024-01-11T09:28:52;29.00;;;14.55;;
29824;SDS011;16713;52.916;12.834;2024-01-11T09:31:18;23.17;;;12.45;;
29824;SDS011;16713;52.916;12.834;2024-01-11T09:33:45;26.65;;;14.48;;
29824;SDS011;16713;52.916;12.834;2024-01-11T09:36:12;30.38;;;13.88;;
29824;SDS011;16713;52.916;12.834;2024-01-11T09:38:39;27.38;;;13.73;;
29824;SDS011;16713;52.916;12.834;2024-01-11T09:41:07;26.85;;;13.68;;
29824;SDS011;16713;52.916;12.834;2024-01-11T09:43:39;26.27;;;14.43;;
29824;SDS011;16713;52.916;12.834;2024-01-11T09:46:07;29.83;;;15.13;;
29824;SDS011;16713;52.916;12.834;2024-01-11T09:48:37;26.92;;;14.45;;
29824;SDS011;16713;52.916;12.834;2024-01-11T09:51:06;34.08;;;16.33;;
29824;SDS011;16713;52.916;12.834;2024-01-11T09:53:38;33.10;;;15.02;;
29824;SDS011;16713;52.916;12.834;2024-01-11T09:56:09;33.63;;;16.85;;
29824;SDS011;16713;52.916;12.834;2024-01-11T09:58:37;33.50;;;16.77;;
29824;SDS011;16713;52.916;12.834;2024-01-11T10:01:09;32.10;;;15.63;;
29824;SDS011;16713;52.916;12.834;2024-01-11T10:03:41;29.90;;;14.73;;
29824;SDS011;16713;52.916;12.834;2024-01-11T10:06:08;34.80;;;16.52;;
29824;SDS011;16713;52.916;12.834;2024-01-11T10:08:35;36.28;;;18.92;;
29824;SDS011;16713;52.916;12.834;2024-01-11T10:11:02;36.83;;;18.45;;
29824;SDS011;16713;52.916;12.834;2024-01-11T10:13:30;35.28;;;17.40;;
29824;SDS011;16713;52.916;12.834;2024-01-11T10:16:04;34.58;;;17.23;;
29824;SDS011;16713;52.916;12.834;2024-01-11T10:18:32;35.45;;;18.15;;
29824;SDS011;16713;52.916;12.834;2024-01-11T10:20:59;34.08;;;15.10;;
29824;SDS011;16713;52.916;12.834;2024-01-11T10:23:26;35.72;;;16.55;;
29824;SDS011;16713;52.916;12.834;2024-01-11T10:25:57;36.97;;;18.35;;
29824;SDS011;16713;52.916;12.834;2024-01-11T10:28:27;34.03;;;17.30;;
29824;SDS011;16713;52.916;12.834;2024-01-11T10:30:54;32.15;;;15.68;;
29824;SDS011;16713;52.916;12.834;2024-01-11T10:33:22;32.45;;;15.32;;
29824;SDS011;16713;52.916;12.834;2024-01-11T10:35:49;33.33;;;16.10;;
29824;SDS011;16713;52.916;12.834;2024-01-11T10:38:16;34.92;;;16.30;;
29824;SDS011;16713;52.916;12.834;2024-01-11T10:40:44;31.45;;;14.40;;
29824;SDS011;16713;52.916;12.834;2024-01-11T10:43:11;30.15;;;14.55;;
29824;SDS011;16713;52.916;12.834;2024-01-11T10:45:38;31.95;;;15.52;;
29824;SDS011;16713;52.916;12.834;2024-01-11T10:48:14;29.70;;;13.95;;
29824;SDS011;16713;52.916;12.834;2024-01-11T10:50:43;31.85;;;14.35;;
29824;SDS011;16713;52.916;12.834;2024-01-11T10:56:08;24.17;;;11.90;;
29824;SDS011;16713;52.916;12.834;2024-01-11T10:58:42;24.40;;;12.85;;
29824;SDS011;16713;52.916;12.834;2024-01-11T11:01:12;26.73;;;13.05;;
29824;SDS011;16713;52.916;12.834;2024-01-11T11:03:40;25.30;;;13.27;;
29824;SDS011;16713;52.916;12.834;2024-01-11T11:06:10;18.47;;;9.20;;
29824;SDS011;16713;52.916;12.834;2024-01-11T11:08:40;25.05;;;11.95;;
29824;SDS011;16713;52.916;12.834;2024-01-11T11:11:08;24.42;;;11.57;;
29824;SDS011;16713;52.916;12.834;2024-01-11T11:13:35;24.73;;;12.32;;
29824;SDS011;16713;52.916;12.834;2024-01-11T11:16:01;20.05;;;10.23;;
29824;SDS011;16713;52.916;12.834;2024-01-11T11:18:30;17.13;;;9.52;;
29824;SDS011;16713;52.916;12.834;2024-01-11T11:20:58;20.70;;;9.30;;
29824;SDS011;16713;52.916;12.834;2024-01-11T11:23:25;16.90;;;8.68;;
29824;SDS011;16713;52.916;12.834;2024-01-11T11:25:53;16.15;;;9.10;;
29824;SDS011;16713;52.916;12.834;2024-01-11T11:28:23;16.58;;;7.20;;
29824;SDS011;16713;52.916;12.834;2024-01-11T11:30:52;13.27;;;7.20;;
29824;SDS011;16713;52.916;12.834;2024-01-11T11:33:20;16.98;;;7.85;;
29824;SDS011;16713;52.916;12.834;2024-01-11T11:35:53;15.27;;;7.25;;
29824;SDS011;16713;52.916;12.834;2024-01-11T11:38:22;14.55;;;7.60;;
29824;SDS011;16713;52.916;12.834;2024-01-11T11:40:52;17.52;;;8.32;;
29824;SDS011;16713;52.916;12.834;2024-01-11T11:43:23;13.68;;;7.38;;
29824;SDS011;16713;52.916;12.834;2024-01-11T11:45:50;12.95;;;7.20;;
29824;SDS011;16713;52.916;12.834;2024-01-11T11:53:33;15.75;;;7.15;;
29824;SDS011;16713;52.916;12.834;2024-01-11T11:56:01;16.02;;;6.88;;
29824;SDS011;16713;52.916;12.834;2024-01-11T11:58:28;14.07;;;7.57;;
29824;SDS011;16713;52.916;12.834;2024-01-11T12:00:59;15.52;;;8.25;;
29824;SDS011;16713;52.916;12.834;2024-01-11T12:03:34;19.55;;;8.07;;
29824;SDS011;16713;52.916;12.834;2024-01-11T12:06:05;17.20;;;8.68;;
29824;SDS011;16713;52.916;12.834;2024-01-11T12:08:33;16.80;;;8.52;;
29824;SDS011;16713;52.916;12.834;2024-01-11T12:11:02;19.35;;;9.88;;
29824;SDS011;16713;52.916;12.834;2024-01-11T12:13:29;23.98;;;11.45;;
29824;SDS011;16713;52.916;12.834;2024-01-11T12:15:57;20.77;;;10.75;;
29824;SDS011;16713;52.916;12.834;2024-01-11T12:18:23;21.33;;;10.40;;
29824;SDS011;16713;52.916;12.834;2024-01-11T12:20:51;20.45;;;10.65;;
29824;SDS011;16713;52.916;12.834;2024-01-11T12:23:19;25.80;;;10.38;;
29824;SDS011;16713;52.916;12.834;2024-01-11T12:25:46;22.27;;;10.27;;
29824;SDS011;16713;52.916;12.834;2024-01-11T12:28:13;23.75;;;10.82;;
29824;SDS011;16713;52.916;12.834;2024-01-11T12:30:40;20.20;;;9.38;;
29824;SDS011;16713;52.916;12.834;2024-01-11T12:33:08;21.52;;;10.93;;
29824;SDS011;16713;52.916;12.834;2024-01-11T12:35:36;20.55;;;10.60;;
29824;SDS011;16713;52.916;12.834;2024-01-11T12:38:04;21.23;;;10.18;;
29824;SDS011;16713;52.916;12.834;2024-01-11T12:40:32;23.25;;;11.05;;
29824;SDS011;16713;52.916;12.834;2024-01-11T12:43:06;23.80;;;11.60;;
29824;SDS011;16713;52.916;12.834;2024-01-11T12:45:34;24.40;;;12.80;;
29824;SDS011;16713;52.916;12.834;2024-01-11T12:48:01;21.02;;;9.77;;
29824;SDS011;16713;52.916;12.834;2024-01-11T12:50:30;17.70;;;8.98;;
29824;SDS011;16713;52.916;12.834;2024-01-11T12:53:13;19.23;;;8.98;;
29824;SDS011;16713;52.916;12.834;2024-01-11T12:56:01;21.60;;;10.07;;
29824;SDS011;16713;52.916;12.834;2024-01-11T12:58:30;23.40;;;11.02;;
29824;SDS011;16713;52.916;12.834;2024-01-11T13:00:56;21.33;;;9.55;;
29824;SDS011;16713;52.916;12.834;2024-01-11T13:03:24;18.65;;;9.88;;
29824;SDS011;16713;52.916;12.834;2024-01-11T13:05:53;21.75;;;10.77;;
29824;SDS011;16713;52.916;12.834;2024-01-11T13:08:20;21.15;;;10.27;;
29824;SDS011;16713;52.916;12.834;2024-01-11T13:10:47;19.25;;;9.57;;
29824;SDS011;16713;52.916;12.834;2024-01-11T13:13:15;20.92;;;10.10;;
29824;SDS011;16713;52.916;12.834;2024-01-11T13:15:42;22.17;;;9.68;;
29824;SDS011;16713;52.916;12.834;2024-01-11T13:18:08;23.08;;;9.80;;
29824;SDS011;16713;52.916;12.834;2024-01-11T13:20:36;20.20;;;10.25;;
29824;SDS011;16713;52.916;12.834;2024-01-11T13:23:12;21.08;;;9.57;;
29824;SDS011;16713;52.916;12.834;2024-01-11T13:25:43;20.40;;;10.02;;
29824;SDS011;16713;52.916;12.834;2024-01-11T13:28:10;20.08;;;10.15;;
29824;SDS011;16713;52.916;12.834;2024-01-11T13:30:38;21.63;;;10.32;;
29824;SDS011;16713;52.916;12.834;2024-01-11T13:33:06;17.58;;;8.75;;
29824;SDS011;16713;52.916;12.834;2024-01-11T13:35:40;22.17;;;9.80;;
29824;SDS011;16713;52.916;12.834;2024-01-11T13:38:09;18.90;;;8.85;;
29824;SDS011;16713;52.916;12.834;2024-01-11T13:40:36;20.83;;;9.27;;
29824;SDS011;16713;52.916;12.834;2024-01-11T13:43:04;20.40;;;9.65;;
29824;SDS011;16713;52.916;12.834;2024-01-11T13:45:31;18.42;;;9.50;;
29824;SDS011;16713;52.916;12.834;2024-01-11T13:47:58;20.27;;;9.70;;
29824;SDS011;16713;52.916;12.834;2024-01-11T13:50:26;23.65;;;9.40;;
29824;SDS011;16713;52.916;12.834;2024-01-11T13:52:53;21.33;;;10.00;;
29824;SDS011;16713;52.916;12.834;2024-01-11T13:55:20;19.63;;;9.57;;
29824;SDS011;16713;52.916;12.834;2024-01-11T13:57:49;18.08;;;8.80;;
29824;SDS011;16713;52.916;12.834;2024-01-11T14:00:16;25.98;;;10.35;;
29824;SDS011;16713;52.916;12.834;2024-01-11T14:02:45;19.88;;;9.32;;
29824;SDS011;16713;52.916;12.834;2024-01-11T14:05:13;23.92;;;11.07;;
29824;SDS011;16713;52.916;12.834;2024-01-11T14:07:43;21.38;;;9.73;;
29824;SDS011;16713;52.916;12.834;2024-01-11T14:10:11;23.25;;;11.00;;
29824;SDS011;16713;52.916;12.834;2024-01-11T14:12:39;23.45;;;10.00;;
29824;SDS011;16713;52.916;12.834;2024-01-11T14:15:07;20.30;;;9.60;;
29824;SDS011;16713;52.916;12.834;2024-01-11T14:17:38;20.60;;;8.88;;
29824;SDS011;16713;52.916;12.834;2024-01-11T14:20:05;22.65;;;10.90;;
29824;SDS011;16713;52.916;12.834;2024-01-11T14:22:39;19.52;;;9.18;;